This is the latest recevied weather packets stored in our database for station/object N5SOR-1. If no packets are shown the sender has not sent any weather packets the latest 10 day(s).
| Time | Temp. | Humidity | Pressure | Rain* | Wind** | Luminosity | Snow |
|---|---|---|---|---|---|---|---|
| 1777461581 | 22.78° C | 45% | 1010 hPa | 0 mm | - | 0 W/m² | - |
| 1777460921 | 22.78° C | 46% | 1010 hPa | 0 mm | - | 0 W/m² | - |
| 1777460260 | 22.22° C | 46% | 1010.1 hPa | 0 mm | - | 0 W/m² | - |
| 1777459599 | 22.22° C | 46% | 1010 hPa | 0 mm | - | 0 W/m² | - |
| 1777458939 | 22.78° C | 44% | 1010.1 hPa | 0 mm | - | 0 W/m² | - |
| 1777458278 | 22.78° C | 40% | 1010.1 hPa | 0 mm | - | 0 W/m² | - |
| 1777457618 | 23.33° C | 34% | 1009.9 hPa | 0 mm | - | 0 W/m² | - |
| 1777456957 | 23.33° C | 32% | 1009.7 hPa | 0 mm | - | 0 W/m² | - |
| 1777456296 | 23.33° C | 32% | 1009.7 hPa | 0 mm | - | 0 W/m² | - |
| 1777455636 | 23.33° C | 31% | 1009.8 hPa | 0 mm | - | 0 W/m² | - |
| 1777454975 | 23.33° C | 31% | 1009.8 hPa | 0 mm | - | 0 W/m² | - |
| 1777454315 | 23.33° C | 36% | 1009.5 hPa | 0 mm | - | 0 W/m² | - |
| 1777453654 | 23.33° C | 43% | 1009.7 hPa | 0 mm | - | 0 W/m² | - |
| 1777452993 | 22.78° C | 52% | 1009.7 hPa | 0 mm | - | 0 W/m² | - |
| 1777452332 | 22.22° C | 63% | 1009.6 hPa | 0 mm | - | 0 W/m² | - |
| 1777451672 | 22.78° C | 64% | 1009.7 hPa | 0 mm | - | 0 W/m² | - |
| 1777451011 | 22.78° C | 69% | 1009.7 hPa | 0 mm | - | 0 W/m² | - |
| 1777450351 | 23.33° C | 68% | 1009.9 hPa | 0 mm | - | 0 W/m² | - |
| 1777449690 | 24.44° C | 64% | 1009.7 hPa | 0 mm | - | 0 W/m² | - |
| 1777449030 | 24.44° C | 64% | 1009.7 hPa | 0 mm | - | 0 W/m² | - |
| 1777448369 | 23.89° C | 65% | 1009.8 hPa | 0 mm | - | 0 W/m² | - |
| 1777447708 | 24.44° C | 64% | 1010 hPa | 0 mm | - | 0 W/m² | - |
| 1777447048 | 24.44° C | 63% | 1009.9 hPa | 0 mm | - | 0 W/m² | - |
| 1777446387 | 24.44° C | 63% | 1010.2 hPa | 0 mm | - | 0 W/m² | - |
| 1777445726 | 25° C | 61% | 1010.3 hPa | 0 mm | - | 0 W/m² | - |
* Rain latest hour (hover to see other rain measurements)
** Current wind speed in m/s (hover to see current wind gust speed)